Estación Meteorológica Peña el Pijo (Robertgarden) [ 01/30/23 14:24:42 CET ]

Fecha Hora Presion(HPa) Temp (°C) Humedad % Rocio (°C) Viento ( m/s) Direccion Lluvia 1Hora(mm) Lluvia 24H(mm) LLuvia Total(mm)
2010-Jun-13 01:01:18 1008.600 9.9 87 7.8         120.17
2010-Jun-13 02:01:14 1008.300 8.6 88 6.7         120.17
2010-Jun-13 03:03:21 1008.100 8.1 89 6.4         120.17
2010-Jun-13 04:01:14 1007.800 7.8 90 6.3         120.17
2010-Jun-13 05:01:13 1007.600 8.3 91 7.0         120.17
2010-Jun-13 06:01:13 1007.600 8.6 90 7.1         120.17
2010-Jun-13 07:01:11 1007.800 8.6 90 7.1         120.17
2010-Jun-13 08:01:14 1008.000 9.4 91 8.0         120.17
2010-Jun-13 09:01:13 1008.200 10.6 88 8.7         120.17
2010-Jun-13 10:01:16 1008.500 11.4 87 9.3         120.17
2010-Jun-13 11:01:17 1008.400 14.4 77 10.4         120.17
2010-Jun-13 12:01:19 1008.400 18.8 60 10.9         120.17
2010-Jun-13 13:01:16 1008.200 19.0 53 9.2 1.0 NE     120.17
2010-Jun-13 14:01:17 1008.200 21.5 49 10.3         120.17
2010-Jun-13 15:01:12 1008.500 16.8 56 7.9         120.17
2010-Jun-13 16:01:19 1009.000 17.4 56 8.5         120.17
2010-Jun-13 17:01:14 1008.800 14.1 74 9.5         120.17
2010-Jun-13 18:01:13 1008.200 19.0 59 10.8         120.17
2010-Jun-13 19:01:13 1008.100 20.1 50 9.4         120.17
2010-Jun-13 20:01:14 1008.400 17.6 62 10.2         120.17
2010-Jun-13 21:01:12 1008.700 16.1 67 10.0         120.17
2010-Jun-13 22:01:14 1009.500 14.2 76 10.0         120.17
2010-Jun-13 23:01:15 1009.600 13.2 80 9.8         120.17

Temperatura Máxima:21°    Temperatura Mínima:
Presión Máxima:1009.600 Hpa    Presión Mínima:1007.600 Hpa


Volver